Hartford, Connecticut
Traffic Map
Current Weather Conditions
Hartford, Connecticut
Overcast
Overcast
71°
Feels Like: 71°
Wind Chill: 71° Ceiling: 4900
Heat Index: 71° Visibility: 10mi
Dew Point: 62° Wind: 3mph
Humidity: 73% Direction: 150° (SSE)
Pressure: 30.07in Gusts: 0mph
Raw Report DataKHFD 211353Z 15003KT 10SM OVC049 22/17 A3007 RMK AO2 SLP183 T02170167
Traffic Incident Summary
Active as of:
Severity:
Category:
InformationThere was an issue retrieving the traffic information for this location. Please try a different location or try again shortly.
Advertisements
Track Severe Weather on mobile